Time;durP1;ratioP1;P1;durP2;ratioP2;P2;SDS_P1;SDS_P2;PMS_P1;PMS_P2;Temp;Humidity;BMP_temperature;BMP_pressure;BME280_temperature;BME280_humidity;BME280_pressure;Samples;Min_cycle;Max_cycle;Signal;HPM_P1;HPM_P2
2021/12/10 00:01:24;;;;;;;120.22;48.92;;;1.60;96.80;;;;;;5072404;28;20028;-76
2021/12/10 00:03:57;;;;;;;119.13;48.35;;;1.60;96.80;;;;;;5072094;28;20025;-75
2021/12/10 00:06:48;;;;;;;135.05;50.22;;;1.60;96.90;;;;;;5072275;28;20033;-75
2021/12/10 00:09:44;;;;;;;142.57;49.65;;;1.50;97.00;;;;;;5073455;28;20017;-75
2021/12/10 00:12:18;;;;;;;125.72;50.30;;;1.50;97.10;;;;;;5072013;28;20024;-76
2021/12/10 00:14:46;;;;;;;126.65;49.92;;;1.50;97.00;;;;;;5073149;28;20020;-75
2021/12/10 00:17:14;;;;;;;119.75;49.30;;;1.50;97.10;;;;;;5073330;28;20029;-76
2021/12/10 00:19:48;;;;;;;133.95;49.75;;;1.50;97.20;;;;;;5072038;28;20024;-75
2021/12/10 00:22:33;;;;;;;124.75;48.40;;;1.50;97.10;;;;;;5056226;28;20393;-75
2021/12/10 00:25:00;;;;;;;119.57;50.47;;;1.50;97.20;;;;;;5071918;28;20028;-76
2021/12/10 00:27:32;;;;;;;126.95;50.60;;;1.50;97.20;;;;;;5071976;28;20138;-75
2021/12/10 00:30:07;;;;;;;124.75;49.53;;;1.50;97.10;;;;;;5073446;28;20017;-75
2021/12/10 00:32:41;;;;;;;115.28;45.28;;;1.50;97.00;;;;;;5071816;28;20056;-74
2021/12/10 00:35:15;;;;;;;124.35;49.72;;;1.50;96.80;;;;;;5072633;28;20033;-75
2021/12/10 00:37:41;;;;;;;122.07;46.35;;;1.50;96.70;;;;;;5072247;28;20036;-76
2021/12/10 00:40:11;;;;;;;130.18;46.85;;;1.50;96.70;;;;;;5074215;28;20012;-75
2021/12/10 00:42:38;;;;;;;122.50;48.83;;;1.50;96.80;;;;;;5073187;28;20555;-74
2021/12/10 00:45:18;;;;;;;116.38;45.45;;;1.50;96.80;;;;;;5071196;28;20044;-75
2021/12/10 00:47:59;;;;;;;125.63;49.90;;;1.40;96.90;;;;;;5071527;28;20105;-76
2021/12/10 00:50:32;;;;;;;125.03;46.72;;;1.50;97.00;;;;;;5073205;28;20021;-76
2021/12/10 00:52:59;;;;;;;117.50;47.28;;;1.50;97.10;;;;;;5071712;28;20025;-76
2021/12/10 00:55:27;;;;;;;128.45;48.90;;;1.40;96.90;;;;;;5072867;28;20381;-76
2021/12/10 00:58:02;;;;;;;120.75;47.78;;;1.50;97.30;;;;;;5073128;28;20041;-75
2021/12/10 01:00:44;;;;;;;129.63;52.10;;;1.50;96.80;;;;;;5074196;28;20028;-76
2021/12/10 01:03:16;;;;;;;132.55;51.67;;;1.40;97.10;;;;;;5077307;28;20424;-75
2021/12/10 01:05:46;;;;;;;122.90;50.05;;;1.50;96.90;;;;;;5075883;28;20032;-75
2021/12/10 01:08:13;;;;;;;121.72;50.22;;;1.50;97.00;;;;;;5076082;28;20032;-75
2021/12/10 01:10:51;;;;;;;129.88;51.22;;;1.50;97.00;;;;;;5059339;28;20029;-75
2021/12/10 01:13:26;;;;;;;129.65;51.53;;;1.50;97.10;;;;;;5075512;28;20024;-75
2021/12/10 01:27:37;;;;;;;128.27;50.10;;;1.40;97.00;;;;;;5076681;28;20092;-75
2021/12/10 01:30:21;;;;;;;118.70;48.33;;;1.40;97.10;;;;;;5075052;28;20456;-75
2021/12/10 01:32:52;;;;;;;126.95;47.97;;;1.40;97.00;;;;;;5074798;28;20051;-75
2021/12/10 01:35:21;;;;;;;130.75;50.75;;;1.40;97.00;;;;;;5074605;28;20409;-75
2021/12/10 01:37:50;;;;;;;124.82;52.15;;;1.40;96.80;;;;;;5075927;28;20065;-75
2021/12/10 01:40:21;;;;;;;129.68;49.50;;;1.40;96.70;;;;;;5075128;28;20177;-75
2021/12/10 01:42:49;;;;;;;132.15;50.40;;;1.40;96.70;;;;;;5058821;28;20043;-75
2021/12/10 01:45:24;;;;;;;124.95;49.95;;;1.40;96.70;;;;;;5073898;28;20413;-74
2021/12/10 01:48:03;;;;;;;120.75;51.80;;;1.40;96.90;;;;;;5075433;28;20118;-76
2021/12/10 01:50:31;;;;;;;130.30;50.80;;;1.40;96.90;;;;;;5075261;28;20021;-74
2021/12/10 01:53:09;;;;;;;126.80;49.15;;;1.40;96.90;;;;;;5074391;28;20393;-75
2021/12/10 01:55:43;;;;;;;135.75;53.25;;;1.40;96.80;;;;;;5075919;28;20402;-75
2021/12/10 01:58:13;;;;;;;124.35;50.05;;;1.40;96.90;;;;;;5074523;28;20025;-75
2021/12/10 02:00:43;;;;;;;135.32;52.80;;;1.40;96.80;;;;;;5076012;28;20083;-75
2021/12/10 02:03:11;;;;;;;134.75;52.67;;;1.40;96.90;;;;;;5075110;28;20032;-76
2021/12/10 02:05:38;;;;;;;130.55;49.38;;;1.40;97.20;;;;;;5076092;28;20021;-75
2021/12/10 02:08:05;;;;;;;140.80;54.78;;;1.40;96.90;;;;;;5074310;28;20127;-75
2021/12/10 02:10:34;;;;;;;125.28;48.30;;;1.40;96.90;;;;;;5057706;28;20490;-74
2021/12/10 02:13:01;;;;;;;142.95;54.65;;;1.40;97.10;;;;;;5075219;28;20405;-75
2021/12/10 02:15:29;;;;;;;132.90;51.55;;;1.40;97.00;;;;;;5074444;28;20036;-75
2021/12/10 02:17:57;;;;;;;139.27;52.10;;;1.40;97.10;;;;;;5075934;28;20017;-75
2021/12/10 02:20:32;;;;;;;124.65;49.25;;;1.40;97.10;;;;;;5058065;28;20028;-75
2021/12/10 02:23:01;;;;;;;137.95;53.28;;;1.40;97.10;;;;;;5074184;28;20074;-75
2021/12/10 02:25:30;;;;;;;125.05;52.53;;;1.40;96.90;;;;;;5057612;28;20082;-75
2021/12/10 02:27:57;;;;;;;133.93;52.40;;;1.40;96.90;;;;;;5075887;28;20346;-76
2021/12/10 02:30:26;;;;;;;140.73;49.95;;;1.40;96.90;;;;;;5076318;28;20024;-76
2021/12/10 02:32:53;;;;;;;125.18;51.53;;;1.30;96.90;;;;;;5075669;28;20112;-76
2021/12/10 02:35:21;;;;;;;138.82;54.88;;;1.30;96.90;;;;;;5074796;28;20150;-76
2021/12/10 02:37:54;;;;;;;136.85;52.28;;;1.30;97.00;;;;;;5076698;28;20382;-76
2021/12/10 02:40:31;;;;;;;143.07;53.47;;;1.30;97.10;;;;;;5074694;28;20086;-76
2021/12/10 02:43:01;;;;;;;134.27;51.10;;;1.20;97.20;;;;;;5057322;28;20032;-75
2021/12/10 02:45:29;;;;;;;142.70;56.83;;;1.30;97.30;;;;;;5073223;28;20060;-75
2021/12/10 02:48:05;;;;;;;128.77;50.13;;;1.30;97.20;;;;;;5056869;28;20021;-75
2021/12/10 02:50:34;;;;;;;131.63;50.92;;;1.30;97.40;;;;;;5073533;28;20020;-75
2021/12/10 02:53:00;;;;;;;134.10;52.75;;;1.30;97.30;;;;;;5073542;28;20020;-76
2021/12/10 02:55:29;;;;;;;124.07;49.38;;;1.30;97.30;;;;;;5073574;28;20036;-76
2021/12/10 02:58:04;;;;;;;129.90;52.83;;;1.30;97.20;;;;;;5073406;28;20025;-76
2021/12/10 03:00:34;;;;;;;134.98;52.47;;;1.30;97.20;;;;;;5074690;28;20112;-76
2021/12/10 03:03:01;;;;;;;132.70;50.83;;;1.30;97.10;;;;;;5074426;28;20094;-76
2021/12/10 03:05:29;;;;;;;136.70;52.85;;;1.30;97.10;;;;;;5072981;28;20048;-75
2021/12/10 03:07:55;;;;;;;128.95;53.33;;;1.30;97.20;;;;;;5072933;28;20049;-75
2021/12/10 03:10:26;;;;;;;137.60;53.90;;;1.30;97.10;;;;;;5056436;28;20025;-76
2021/12/10 03:12:54;;;;;;;147.52;56.00;;;1.30;97.10;;;;;;5072918;28;20028;-75
2021/12/10 03:15:30;;;;;;;135.50;54.30;;;1.30;97.10;;;;;;5074211;28;20042;-76
2021/12/10 03:18:00;;;;;;;129.02;50.95;;;1.40;97.10;;;;;;5074338;28;20111;-76
2021/12/10 03:20:42;;;;;;;135.75;51.03;;;1.40;96.80;;;;;;5072727;28;20036;-76
2021/12/10 03:23:09;;;;;;;135.18;54.15;;;1.40;96.80;;;;;;5072619;28;20043;-76
2021/12/10 03:25:38;;;;;;;138.65;54.63;;;1.30;96.60;;;;;;5073790;28;20531;-75
2021/12/10 03:28:05;;;;;;;136.52;52.92;;;1.30;96.70;;;;;;5072306;28;20028;-75
2021/12/10 03:30:39;;;;;;;135.02;53.50;;;1.40;96.70;;;;;;5055995;28;20021;-76
2021/12/10 03:33:06;;;;;;;138.85;53.92;;;1.40;96.70;;;;;;5056675;28;20052;-76
2021/12/10 03:35:41;;;;;;;132.30;52.80;;;1.40;96.80;;;;;;5072756;28;20489;-75
2021/12/10 03:38:11;;;;;;;130.95;53.22;;;1.40;96.70;;;;;;5056855;28;20547;-75
2021/12/10 03:40:39;;;;;;;130.57;52.20;;;1.40;96.50;;;;;;5073565;28;20036;-76
2021/12/10 03:43:07;;;;;;;136.85;51.20;;;1.40;96.40;;;;;;5073777;28;20474;-76
2021/12/10 03:45:38;;;;;;;131.75;51.33;;;1.30;96.30;;;;;;5073422;28;20049;-75
2021/12/10 03:48:12;;;;;;;142.90;55.10;;;1.30;96.10;;;;;;5072532;28;20528;-75
2021/12/10 03:50:45;;;;;;;133.20;53.30;;;1.30;96.10;;;;;;5073547;28;20021;-76
2021/12/10 03:53:13;;;;;;;146.02;51.92;;;1.20;96.00;;;;;;5072469;28;20021;-75
2021/12/10 03:55:48;;;;;;;132.32;51.33;;;1.20;96.20;;;;;;5072470;28;20043;-75
2021/12/10 03:58:16;;;;;;;133.85;50.95;;;1.20;96.30;;;;;;5073441;28;20021;-76
2021/12/10 04:01:00;;;;;;;137.02;53.25;;;1.20;96.30;;;;;;5072157;28;20068;-75
2021/12/10 04:03:28;;;;;;;143.43;55.97;;;1.20;96.30;;;;;;5073380;28;20032;-75
2021/12/10 04:05:55;;;;;;;140.50;54.55;;;1.20;96.30;;;;;;5072347;28;20029;-75
2021/12/10 04:08:22;;;;;;;136.00;53.40;;;1.20;96.30;;;;;;5073395;28;20019;-75
2021/12/10 04:10:49;;;;;;;131.98;51.42;;;1.20;96.40;;;;;;5055605;28;20032;-75
2021/12/10 04:13:17;;;;;;;131.60;53.30;;;1.30;96.50;;;;;;5072133;28;20025;-75
2021/12/10 04:15:44;;;;;;;142.75;55.42;;;1.30;96.20;;;;;;5072045;28;20097;-75
2021/12/10 04:18:25;;;;;;;127.68;51.78;;;1.30;96.20;;;;;;5078268;28;20036;-75
2021/12/10 04:20:52;;;;;;;128.57;53.92;;;1.30;96.30;;;;;;5093670;28;20460;-75
2021/12/10 04:23:27;;;;;;;128.90;52.83;;;1.20;96.20;;;;;;5088956;28;20020;-76
2021/12/10 04:26:09;;;;;;;132.45;51.33;;;1.30;96.20;;;;;;5071875;28;20111;-75
2021/12/10 04:28:35;;;;;;;132.73;52.63;;;1.30;96.10;;;;;;5072093;28;20021;-75
2021/12/10 04:31:02;;;;;;;120.68;51.55;;;1.30;96.20;;;;;;5071724;28;20202;-75
2021/12/10 04:33:29;;;;;;;140.38;52.55;;;1.30;96.10;;;;;;5071675;28;20024;-75
2021/12/10 04:35:58;;;;;;;132.25;52.63;;;1.30;96.20;;;;;;5073008;28;20111;-75
2021/12/10 04:38:26;;;;;;;128.45;52.95;;;1.30;96.30;;;;;;5076386;28;20028;-75
2021/12/10 04:40:56;;;;;;;130.75;50.40;;;1.40;96.20;;;;;;5078005;28;20028;-75
2021/12/10 04:43:24;;;;;;;135.80;54.90;;;1.30;96.10;;;;;;5076614;28;20082;-75
2021/12/10 04:45:56;;;;;;;135.00;53.08;;;1.40;95.90;;;;;;5076399;28;20132;-75
2021/12/10 04:48:25;;;;;;;135.48;52.17;;;1.30;95.80;;;;;;5076706;28;20023;-75
2021/12/10 04:50:51;;;;;;;144.65;56.47;;;1.30;95.90;;;;;;5076403;28;20033;-75
2021/12/10 04:53:18;;;;;;;146.45;55.53;;;1.30;96.00;;;;;;5075920;28;20115;-75
2021/12/10 04:55:45;;;;;;;145.63;55.67;;;1.30;96.20;;;;;;5075989;28;20486;-75
2021/12/10 04:58:11;;;;;;;146.75;57.60;;;1.30;96.20;;;;;;5077422;28;20028;-76
2021/12/10 05:00:45;;;;;;;127.70;54.42;;;1.30;96.10;;;;;;5076164;28;20063;-75
2021/12/10 05:03:12;;;;;;;129.70;51.40;;;1.30;96.00;;;;;;5077244;28;20020;-76
2021/12/10 05:05:39;;;;;;;135.38;54.83;;;1.30;96.10;;;;;;5077015;28;20024;-75
2021/12/10 05:08:06;;;;;;;145.02;54.25;;;1.30;96.20;;;;;;5076438;28;20055;-76
2021/12/10 05:10:33;;;;;;;142.70;55.92;;;1.30;96.10;;;;;;5077415;28;20031;-75
2021/12/10 05:12:59;;;;;;;150.35;55.47;;;1.30;96.00;;;;;;5058892;28;20038;-75
2021/12/10 05:15:29;;;;;;;137.50;54.58;;;1.30;96.00;;;;;;5076884;28;20071;-75
2021/12/10 05:17:56;;;;;;;140.20;56.60;;;1.30;96.00;;;;;;5075475;28;20037;-75
2021/12/10 05:20:37;;;;;;;138.55;54.40;;;1.30;96.30;;;;;;5058659;28;20111;-76
2021/12/10 05:23:03;;;;;;;146.73;57.85;;;1.30;95.90;;;;;;5077219;28;20427;-75
2021/12/10 05:25:30;;;;;;;148.90;58.15;;;1.20;96.00;;;;;;5075654;28;20040;-75
2021/12/10 05:27:58;;;;;;;148.55;59.47;;;1.20;96.10;;;;;;5075813;28;20107;-75
2021/12/10 05:30:27;;;;;;;152.27;61.28;;;1.30;95.90;;;;;;5059249;28;20021;-75
2021/12/10 05:32:56;;;;;;;142.23;57.20;;;1.20;95.60;;;;;;5076861;28;20028;-76
2021/12/10 05:35:23;;;;;;;139.70;56.38;;;1.20;95.90;;;;;;5076650;28;20143;-76
2021/12/10 05:37:51;;;;;;;146.95;58.22;;;1.10;96.00;;;;;;5076445;28;20471;-75
2021/12/10 05:40:19;;;;;;;146.27;59.03;;;1.10;96.10;;;;;;5076562;28;20032;-75
2021/12/10 05:42:47;;;;;;;149.82;57.53;;;1.10;96.20;;;;;;5077683;28;20044;-76
2021/12/10 05:45:14;;;;;;;159.75;57.85;;;1.00;96.10;;;;;;5076716;28;20132;-75
2021/12/10 05:47:41;;;;;;;152.25;62.17;;;1.00;96.40;;;;;;5057726;28;20020;-75
2021/12/10 05:50:10;;;;;;;149.35;59.33;;;1.00;96.40;;;;;;5075174;28;20047;-75
2021/12/10 05:52:44;;;;;;;154.43;59.72;;;1.00;96.40;;;;;;5058844;28;20029;-74
2021/12/10 05:55:10;;;;;;;156.73;60.65;;;1.00;96.60;;;;;;5075506;28;20025;-75
2021/12/10 05:57:37;;;;;;;156.13;58.15;;;1.00;96.60;;;;;;5074866;28;20077;-74
2021/12/10 06:00:15;;;;;;;153.98;59.35;;;1.00;96.60;;;;;;5074277;28;20028;-75
2021/12/10 06:02:42;;;;;;;149.45;56.85;;;1.00;96.70;;;;;;5075894;28;20033;-74
2021/12/10 06:05:08;;;;;;;152.00;58.38;;;1.00;97.00;;;;;;5074485;28;20033;-74
2021/12/10 06:07:38;;;;;;;144.88;59.22;;;1.00;97.10;;;;;;5074107;28;20099;-73
2021/12/10 06:10:07;;;;;;;161.23;59.92;;;1.00;97.20;;;;;;5075352;28;20017;-74
2021/12/10 06:12:34;;;;;;;149.98;59.15;;;1.00;97.20;;;;;;5057446;28;20425;-74
2021/12/10 06:15:03;;;;;;;164.60;61.35;;;1.00;97.20;;;;;;5073799;28;20366;-75
2021/12/10 06:17:44;;;;;;;144.93;61.38;;;1.00;97.30;;;;;;5075540;28;20035;-76
2021/12/10 06:20:13;;;;;;;155.00;62.47;;;1.00;97.30;;;;;;5073736;28;20432;-75
2021/12/10 06:22:44;;;;;;;180.30;65.40;;;1.00;97.40;;;;;;5073925;28;20482;-75
2021/12/10 06:25:11;;;;;;;154.48;61.00;;;1.00;97.40;;;;;;5073951;28;20029;-76
2021/12/10 06:27:44;;;;;;;159.98;64.05;;;1.00;97.40;;;;;;5074840;28;20082;-78
2021/12/10 06:30:24;;;;;;;163.68;63.75;;;1.00;97.40;;;;;;5073762;28;20048;-77
2021/12/10 06:32:54;;;;;;;155.60;63.55;;;0.90;97.40;;;;;;5073398;28;20067;-77
2021/12/10 06:35:22;;;;;;;164.80;64.78;;;0.90;97.20;;;;;;5073661;28;20059;-77
2021/12/10 06:37:49;;;;;;;162.25;62.97;;;0.90;97.10;;;;;;5074385;28;20025;-77
2021/12/10 06:40:18;;;;;;;180.13;69.25;;;0.80;97.10;;;;;;5074710;28;20115;-78
2021/12/10 06:42:44;;;;;;;165.20;65.22;;;0.80;97.20;;;;;;5072785;28;20109;-78
2021/12/10 06:45:14;;;;;;;169.30;64.90;;;0.70;97.10;;;;;;5072874;28;20064;-76
2021/12/10 06:47:47;;;;;;;177.20;67.60;;;0.70;97.10;;;;;;5074482;28;20536;-78
2021/12/10 06:50:28;;;;;;;174.70;65.20;;;0.60;97.10;;;;;;5073270;28;20550;-77
2021/12/10 06:52:57;;;;;;;171.82;67.97;;;0.60;97.10;;;;;;5072045;28;20016;-77
2021/12/10 06:55:26;;;;;;;161.52;67.32;;;0.50;97.30;;;;;;5071953;28;20029;-78
2021/12/10 06:57:54;;;;;;;166.82;67.90;;;0.50;97.50;;;;;;5071676;28;20016;-76
2021/12/10 07:00:25;;;;;;;168.70;62.40;;;0.50;97.60;;;;;;5072613;28;20033;-77
2021/12/10 07:03:06;;;;;;;181.18;67.65;;;0.60;97.40;;;;;;5073145;28;20098;-78
2021/12/10 07:05:34;;;;;;;160.80;62.73;;;0.50;97.30;;;;;;5071872;28;20533;-78
2021/12/10 07:08:08;;;;;;;164.25;65.00;;;0.60;97.10;;;;;;5073738;28;20028;-77
2021/12/10 07:10:45;;;;;;;154.85;61.70;;;0.60;96.90;;;;;;5074456;28;20116;-77
2021/12/10 07:13:15;;;;;;;161.32;62.55;;;0.60;96.80;;;;;;5074217;28;20047;-76
2021/12/10 07:15:46;;;;;;;165.23;63.17;;;0.60;96.70;;;;;;5074207;28;20021;-75
2021/12/10 07:18:27;;;;;;;;;;;0.60;96.50;;;;;;5074517;28;20112;-75
2021/12/10 07:20:53;;;;;;;169.45;64.93;;;0.60;96.50;;;;;;5074208;28;19931;-73
2021/12/10 07:23:28;;;;;;;168.38;63.83;;;0.60;96.50;;;;;;5072543;28;20416;-74
2021/12/10 07:25:56;;;;;;;173.80;68.55;;;0.70;97.10;;;;;;5074316;28;20029;-77
2021/12/10 07:28:23;;;;;;;175.05;67.22;;;0.80;96.80;;;;;;5074578;28;20017;-76
2021/12/10 07:30:51;;;;;;;158.02;62.70;;;0.80;96.20;;;;;;5081929;28;20029;-74
2021/12/10 07:33:18;;;;;;;155.35;63.30;;;0.90;96.10;;;;;;5064637;28;20444;-77
2021/12/10 07:35:46;;;;;;;168.45;67.60;;;0.90;95.50;;;;;;5079936;28;20469;-75
2021/12/10 07:38:12;;;;;;;165.57;64.28;;;1.00;95.30;;;;;;5084700;28;20033;-77
2021/12/10 07:40:39;;;;;;;147.43;56.20;;;1.00;95.10;;;;;;5079542;28;20024;-77
2021/12/10 07:43:06;;;;;;;170.18;61.47;;;1.00;95.00;;;;;;5077134;28;20060;-78
2021/12/10 07:45:33;;;;;;;140.90;58.63;;;1.10;95.00;;;;;;5075880;28;20048;-78
2021/12/10 07:48:07;;;;;;;144.52;58.53;;;1.20;94.70;;;;;;5093466;28;20093;-75
2021/12/10 07:50:54;;;;;;;145.23;58.63;;;1.20;94.40;;;;;;5092289;28;20054;-72
2021/12/10 07:53:25;;;;;;;152.18;59.67;;;1.30;94.30;;;;;;5091101;28;20385;-70
2021/12/10 07:55:55;;;;;;;147.60;61.15;;;1.40;93.70;;;;;;5091908;28;20034;-73
2021/12/10 07:58:22;;;;;;;147.95;60.33;;;1.40;93.40;;;;;;5093733;28;20427;-72
2021/12/10 08:01:09;;;;;;;143.25;58.00;;;1.40;93.10;;;;;;5092598;28;20021;-73
2021/12/10 08:03:36;;;;;;;141.68;55.17;;;1.40;92.90;;;;;;5093718;28;20069;-77
2021/12/10 08:06:05;;;;;;;152.85;60.75;;;1.30;92.90;;;;;;5075270;28;20557;-77
2021/12/10 08:08:33;;;;;;;143.10;56.63;;;1.40;93.20;;;;;;5075409;28;20504;-78
2021/12/10 08:10:59;;;;;;;149.35;58.97;;;1.40;93.10;;;;;;5091983;28;20069;-78
2021/12/10 08:13:26;;;;;;;153.55;62.03;;;1.40;93.00;;;;;;5091994;28;20032;-73
2021/12/10 08:15:53;;;;;;;182.43;65.88;;;1.40;92.90;;;;;;5093106;28;20032;-73
2021/12/10 08:18:19;;;;;;;212.55;69.40;;;1.40;93.20;;;;;;5093156;28;20034;-74
2021/12/10 08:20:45;;;;;;;170.30;62.08;;;1.40;93.10;;;;;;5092285;28;20052;-74
2021/12/10 08:23:19;;;;;;;147.13;60.72;;;1.50;92.90;;;;;;5092164;28;20028;-74
2021/12/10 08:25:47;;;;;;;164.77;63.22;;;1.50;92.50;;;;;;5092182;28;20027;-76
2021/12/10 08:28:13;;;;;;;147.80;60.53;;;1.50;92.60;;;;;;5089726;28;20137;-76
2021/12/10 08:30:40;;;;;;;154.05;60.03;;;1.60;92.60;;;;;;5074073;28;20384;-75
2021/12/10 08:33:14;;;;;;;146.25;60.60;;;1.60;92.50;;;;;;5091926;28;20024;-78
2021/12/10 08:35:46;;;;;;;157.02;61.60;;;1.60;92.10;;;;;;5074452;28;20024;-74
2021/12/10 08:38:14;;;;;;;174.63;64.70;;;1.60;92.30;;;;;;5091529;28;20028;-76
2021/12/10 08:40:56;;;;;;;161.23;65.22;;;1.60;92.30;;;;;;5091455;28;20031;-74
2021/12/10 08:43:22;;;;;;;172.70;66.65;;;1.70;92.30;;;;;;5091765;28;20062;-72
2021/12/10 08:45:48;;;;;;;147.88;61.78;;;1.70;92.10;;;;;;5091462;28;20076;-71
2021/12/10 08:48:14;;;;;;;151.60;59.63;;;1.70;91.80;;;;;;5105899;28;20032;-73
2021/12/10 08:50:49;;;;;;;179.80;64.72;;;1.80;91.90;;;;;;5112948;28;20016;-76
2021/12/10 08:53:18;;;;;;;151.52;64.18;;;1.80;91.50;;;;;;5112160;28;20016;-72
2021/12/10 08:55:49;;;;;;;175.48;65.32;;;1.80;91.60;;;;;;5112216;28;20507;-74
2021/12/10 08:58:17;;;;;;;147.68;60.25;;;1.90;91.90;;;;;;5112257;28;20493;-71
2021/12/10 09:00:49;;;;;;;144.95;58.22;;;2.00;91.60;;;;;;5111789;28;20605;-76
2021/12/10 09:03:16;;;;;;;181.77;62.78;;;2.00;91.50;;;;;;5094855;28;20034;-74
2021/12/10 09:05:44;;;;;;;150.88;61.15;;;2.10;91.30;;;;;;5112087;28;20112;-75
2021/12/10 09:08:09;;;;;;;132.40;59.38;;;2.20;91.10;;;;;;5112035;28;20039;-74
2021/12/10 09:10:38;;;;;;;139.55;55.88;;;2.30;91.10;;;;;;5107669;28;20021;-78
2021/12/10 09:13:20;;;;;;;135.93;56.65;;;2.40;90.80;;;;;;5074280;28;20028;-74
2021/12/10 09:15:59;;;;;;;113.20;51.80;;;2.60;90.50;;;;;;5091243;28;20028;-74
2021/12/10 09:18:26;;;;;;;114.70;53.78;;;2.70;90.20;;;;;;5091756;28;20085;-75
2021/12/10 09:21:02;;;;;;;111.72;48.55;;;2.80;89.60;;;;;;5088495;28;20032;-72
2021/12/10 09:23:29;;;;;;;110.57;50.40;;;2.90;88.50;;;;;;5094602;28;20148;-73
2021/12/10 09:26:18;;;;;;;111.63;47.42;;;2.90;88.20;;;;;;5094984;28;20038;-73
2021/12/10 09:28:46;;;;;;;110.70;49.15;;;3.00;88.30;;;;;;5096161;28;20035;-77
2021/12/10 09:31:15;;;;;;;109.68;48.70;;;2.90;87.60;;;;;;5096422;28;20411;-73
2021/12/10 09:33:42;;;;;;;123.75;50.78;;;2.90;87.40;;;;;;5097289;28;20035;-73
2021/12/10 09:36:18;;;;;;;117.97;53.25;;;2.90;89.00;;;;;;5097616;28;20024;-75
2021/12/10 09:38:59;;;;;;;113.97;50.67;;;3.00;88.50;;;;;;5096947;28;20028;-73
2021/12/10 09:41:31;;;;;;;109.35;48.55;;;3.20;88.20;;;;;;5099822;28;20027;-79
2021/12/10 09:43:58;;;;;;;110.57;51.50;;;3.20;87.50;;;;;;5097527;28;20082;-78
2021/12/10 09:46:24;;;;;;;115.88;51.58;;;3.30;87.10;;;;;;5104066;28;20036;-74
2021/12/10 09:48:51;;;;;;;103.88;48.40;;;3.40;86.90;;;;;;5096942;28;20074;-76
2021/12/10 09:51:35;;;;;;;101.45;47.55;;;3.40;86.40;;;;;;5098239;28;20057;-77
2021/12/10 09:54:05;;;;;;;97.97;43.78;;;3.40;85.70;;;;;;5113310;28;20020;-77
2021/12/10 09:56:31;;;;;;;95.45;43.17;;;3.40;85.40;;;;;;5117817;28;20031;-78
2021/12/10 09:58:58;;;;;;;94.88;41.53;;;3.30;85.40;;;;;;5077221;28;20028;-79
2021/12/10 10:01:36;;;;;;;83.82;41.03;;;3.20;86.70;;;;;;5082178;28;20032;-78
2021/12/10 10:04:04;;;;;;;80.68;38.00;;;3.20;87.10;;;;;;5096531;28;20511;-78
2021/12/10 10:06:44;;;;;;;85.45;37.85;;;3.20;88.10;;;;;;5095612;28;20031;-74
2021/12/10 10:09:28;;;;;;;81.45;37.22;;;3.20;88.70;;;;;;5096171;28;20028;-73
2021/12/10 10:12:08;;;;;;;83.75;44.25;;;3.30;88.90;;;;;;5097072;28;20024;-71
2021/12/10 10:14:34;;;;;;;85.70;42.13;;;3.40;89.30;;;;;;5097389;28;20523;-73
2021/12/10 10:17:19;;;;;;;75.80;34.65;;;3.50;90.10;;;;;;5096921;28;20044;-76
2021/12/10 10:19:46;;;;;;;83.68;38.42;;;3.60;90.10;;;;;;5097651;28;20059;-77
2021/12/10 10:22:27;;;;;;;85.10;39.65;;;3.70;90.00;;;;;;5097680;28;20047;-77
2021/12/10 10:25:11;;;;;;;70.22;34.85;;;3.90;90.10;;;;;;5097196;28;20028;-80
2021/12/10 10:27:47;;;;;;;77.65;35.20;;;3.90;88.50;;;;;;5097496;28;20055;-78
2021/12/10 10:30:25;;;;;;;74.57;33.70;;;3.80;88.00;;;;;;5097850;28;20023;-77
2021/12/10 10:32:54;;;;;;;82.78;36.15;;;3.90;90.00;;;;;;5108642;28;20024;-77
2021/12/10 10:35:26;;;;;;;81.80;38.38;;;3.90;90.00;;;;;;5117190;28;20051;-75
2021/12/10 10:37:53;;;;;;;73.05;35.90;;;3.90;90.20;;;;;;5118754;27;20032;-78
2021/12/10 10:40:24;;;;;;;71.85;36.55;;;3.90;90.10;;;;;;5116858;28;20023;-74
2021/12/10 10:42:52;;;;;;;84.13;39.97;;;4.00;90.20;;;;;;5116054;28;20390;-73
2021/12/10 10:45:23;;;;;;;81.22;36.95;;;4.10;90.20;;;;;;5114639;28;20327;-76
2021/12/10 10:47:51;;;;;;;71.30;33.63;;;4.20;88.80;;;;;;5117374;28;20024;-75
2021/12/10 10:50:30;;;;;;;90.93;42.00;;;4.20;87.10;;;;;;5095175;28;20027;-78
2021/12/10 10:53:16;;;;;;;74.95;36.60;;;4.10;86.10;;;;;;5095097;28;20058;-77
2021/12/10 10:55:53;;;;;;;78.40;36.17;;;4.00;86.20;;;;;;5078703;28;20032;-73
2021/12/10 10:58:23;;;;;;;79.15;36.38;;;3.90;86.70;;;;;;5094151;28;20404;-73
2021/12/10 11:01:07;;;;;;;65.55;31.50;;;3.80;86.80;;;;;;5094296;28;20087;-73
2021/12/10 11:04:03;;;;;;;69.60;35.03;;;3.70;87.00;;;;;;5096174;28;20112;-75
2021/12/10 11:06:38;;;;;;;74.70;38.08;;;3.70;87.40;;;;;;5096461;28;20024;-83
2021/12/10 11:09:16;;;;;;;76.72;34.58;;;3.50;88.40;;;;;;5096097;28;20099;-78
2021/12/10 11:12:03;;;;;;;80.40;37.30;;;3.60;89.60;;;;;;5095144;28;20021;-83
2021/12/10 11:14:37;;;;;;;79.75;35.08;;;3.70;90.10;;;;;;5093202;28;20027;-83
2021/12/10 11:17:12;;;;;;;78.30;34.30;;;3.80;89.60;;;;;;5095875;28;20457;-81
2021/12/10 11:19:54;;;;;;;73.55;35.00;;;3.90;88.90;;;;;;5095978;28;20095;-80
2021/12/10 11:22:29;;;;;;;67.60;34.17;;;3.90;89.20;;;;;;5095168;28;20032;-84
2021/12/10 11:25:06;;;;;;;76.45;39.35;;;4.00;88.40;;;;;;5095248;28;20107;-79
2021/12/10 11:27:39;;;;;;;75.03;35.20;;;4.00;88.00;;;;;;5090354;28;20016;-78
2021/12/10 11:30:20;;;;;;;77.03;35.35;;;4.00;88.20;;;;;;5084788;28;20017;-84
2021/12/10 11:33:20;;;;;;;79.30;38.30;;;4.00;87.50;;;;;;5104579;28;20483;-76
2021/12/10 11:35:58;;;;;;;72.25;33.38;;;4.00;87.70;;;;;;5116388;28;20028;-81
2021/12/10 11:38:32;;;;;;;72.85;32.47;;;4.00;87.40;;;;;;5115892;28;20061;-78
2021/12/10 11:41:15;;;;;;;70.53;30.02;;;3.90;88.20;;;;;;5116361;28;20027;-80
2021/12/10 11:49:26;;;;;;;69.15;34.47;;;3.70;88.20;;;;;;5095198;28;20020;-80
2021/12/10 11:52:31;;;;;;;75.10;34.55;;;3.70;88.50;;;;;;5093814;28;20068;-76
2021/12/10 11:55:12;;;;;;;72.32;34.05;;;3.50;88.80;;;;;;5051838;28;20025;-73
2021/12/10 11:57:50;;;;;;;76.22;32.80;;;3.50;89.70;;;;;;5052115;28;20136;-73
2021/12/10 12:00:24;;;;;;;78.43;37.33;;;3.50;90.10;;;;;;5052443;28;20425;-74
2021/12/10 12:03:06;;;;;;;75.65;35.78;;;3.50;90.10;;;;;;5068056;28;20036;-77
2021/12/10 12:05:43;;;;;;;73.75;35.28;;;3.60;90.10;;;;;;5094142;28;20084;-73
2021/12/10 12:08:17;;;;;;;63.33;30.88;;;3.60;90.20;;;;;;5094267;28;20045;-76
2021/12/10 12:10:46;;;;;;;70.78;33.30;;;3.60;90.10;;;;;;5089901;28;20046;-75
2021/12/10 12:13:30;;;;;;;65.72;30.67;;;3.70;90.30;;;;;;5073641;28;20052;-73
2021/12/10 12:16:04;;;;;;;57.60;29.80;;;3.70;90.40;;;;;;5072993;28;20374;-75
2021/12/10 12:18:54;;;;;;;70.75;34.20;;;3.80;90.20;;;;;;5073299;28;20024;-73
2021/12/10 12:27:08;;;;;;;67.57;33.35;;;4.00;87.80;;;;;;5074042;28;20510;-75
2021/12/10 12:29:46;;;;;;;69.25;33.08;;;3.90;87.60;;;;;;5076406;28;20081;-78
2021/12/10 12:32:25;;;;;;;60.28;30.20;;;3.90;87.70;;;;;;5074007;28;20051;-73
2021/12/10 12:34:52;;;;;;;58.47;28.60;;;3.80;87.80;;;;;;5073059;28;20081;-81
2021/12/10 12:37:19;;;;;;;59.97;30.77;;;3.80;87.80;;;;;;5072972;28;20063;-83
2021/12/10 12:39:45;;;;;;;51.95;25.42;;;3.80;87.50;;;;;;5093404;28;20051;-77
2021/12/10 12:42:31;;;;;;;56.95;27.15;;;3.80;87.30;;;;;;5093856;28;20028;-73
2021/12/10 12:45:08;;;;;;;62.25;31.65;;;3.80;86.50;;;;;;5103766;28;20046;-78
2021/12/10 12:47:40;;;;;;;66.05;34.35;;;3.70;85.60;;;;;;5114704;28;20073;-79
2021/12/10 12:50:29;;;;;;;56.08;29.33;;;3.60;85.90;;;;;;5113263;28;20358;-75
2021/12/10 12:53:13;;;;;;;62.20;29.70;;;3.60;86.40;;;;;;5114836;28;20023;-77
2021/12/10 12:56:05;;;;;;;58.42;28.75;;;3.60;86.80;;;;;;5114492;28;20046;-78
2021/12/10 12:58:55;;;;;;;61.30;27.33;;;3.60;87.20;;;;;;5116730;28;20073;-77
2021/12/10 13:01:32;;;;;;;58.47;29.67;;;3.60;86.70;;;;;;5120007;28;20027;-77
2021/12/10 13:04:01;;;;;;;58.15;27.15;;;3.60;86.60;;;;;;5118082;28;20031;-75
2021/12/10 13:06:58;;;;;;;51.72;25.88;;;3.50;85.90;;;;;;5118712;28;20024;-80
2021/12/10 13:09:40;;;;;;;59.15;26.92;;;3.60;85.50;;;;;;5106030;27;20396;-83
2021/12/10 13:12:28;;;;;;;55.17;27.27;;;3.60;85.50;;;;;;5119550;28;20016;-79
2021/12/10 13:15:03;;;;;;;54.28;26.40;;;3.60;85.80;;;;;;5117080;28;20034;-76
2021/12/10 13:17:35;;;;;;;57.85;29.05;;;3.50;85.70;;;;;;5116746;28;20041;-78
2021/12/10 13:20:20;;;;;;;59.83;28.77;;;3.50;85.90;;;;;;5118492;28;20042;-78